Campina, Romania
Current Conditions -  °F | °C
As of 11:00 PM on Monday 24 Nov 2014 (Local Time) from LRBO Reporting Station
Scattered Clouds Scattered Clouds  
Wind Chill: 21°   Ceiling: Unl
Heat Index: 32°   Visibility: 6mi
Dew Point: 28°   Wind: 16mph
Humidity: 87%   Direction: 40°NE
Pressure: 30.48"   Gusts: NA
Location:  45.13°N, 25.74°E
Report Text: LRBO 242000Z 04014KT 9999 SCT080 00/M02 Q1032 BLU BLU
Loading
Personal Weather Stations






























Interactive Weather Map New forecast layout! Learn more

10-Day Weather Forecast

Advertisements
Track Severe Weather on mobile